Time;durP1;ratioP1;P1;durP2;ratioP2;P2;SDS_P1;SDS_P2;PMS_P1;PMS_P2;Temp;Humidity;BMP_temperature;BMP_pressure;BME280_temperature;BME280_humidity;BME280_pressure;Samples;Min_cycle;Max_cycle;Signal;HPM_P1;HPM_P2
2023/11/15 00:01:13;;;;;;;2.25;1.00;;;10.50;99.90;;;;;;5068928;28;20056;-40
2023/11/15 00:03:40;;;;;;;2.00;1.10;;;10.60;99.90;;;;;;5068087;28;20052;-41
2023/11/15 00:06:08;;;;;;;3.20;1.20;;;10.60;99.90;;;;;;5073095;28;20139;-39
2023/11/15 00:08:35;;;;;;;3.60;1.10;;;10.60;99.90;;;;;;5063279;28;20044;-39
2023/11/15 00:11:03;;;;;;;2.83;1.10;;;10.60;99.90;;;;;;5076541;28;20427;-39
2023/11/15 00:13:30;;;;;;;2.55;1.20;;;10.60;99.90;;;;;;5066407;28;20048;-39
2023/11/15 00:15:57;;;;;;;2.92;1.20;;;10.60;99.90;;;;;;5067198;28;20044;-41
2023/11/15 00:18:25;;;;;;;3.55;1.60;;;10.60;99.90;;;;;;5073707;28;20055;-39
2023/11/15 00:20:52;;;;;;;3.20;1.10;;;10.60;99.90;;;;;;5071558;28;20044;-39
2023/11/15 00:23:19;;;;;;;4.47;1.30;;;10.60;99.90;;;;;;5071852;28;20488;-43
2023/11/15 00:25:46;;;;;;;2.05;1.10;;;10.60;99.90;;;;;;5072312;28;20044;-39
2023/11/15 00:46:59;;;;;;;4.50;1.70;;;10.70;99.90;;;;;;5060243;28;20067;-41
2023/11/15 00:49:28;;;;;;;2.10;1.10;;;10.60;99.90;;;;;;5061112;28;20132;-42
2023/11/15 00:51:56;;;;;;;6.05;1.35;;;10.60;99.90;;;;;;5063641;28;20538;-42
2023/11/15 00:54:24;;;;;;;5.95;1.40;;;10.50;99.90;;;;;;5046282;28;20531;-44
2023/11/15 00:56:51;;;;;;;3.13;1.30;;;10.50;99.90;;;;;;5053390;28;20049;-39
2023/11/15 00:59:22;;;;;;;2.00;1.20;;;10.60;99.90;;;;;;5069695;28;20468;-39
2023/11/15 01:01:58;;;;;;;2.17;1.55;;;10.50;99.90;;;;;;5069752;28;20067;-38
2023/11/15 01:04:25;;;;;;;3.67;1.30;;;10.50;99.90;;;;;;5071572;28;20509;-41
2023/11/15 01:06:52;;;;;;;2.65;1.20;;;10.50;99.90;;;;;;5073435;28;20465;-42
2023/11/15 01:09:22;;;;;;;2.17;1.20;;;10.60;99.90;;;;;;5073341;28;20039;-39
2023/11/15 01:11:52;;;;;;;2.83;1.30;;;10.50;99.90;;;;;;5046353;28;20099;-40
2023/11/15 01:14:20;;;;;;;3.65;1.30;;;10.50;99.90;;;;;;5046233;28;20098;-42
2023/11/15 01:16:47;;;;;;;3.22;1.40;;;10.50;99.90;;;;;;5067363;28;20041;-41
2023/11/15 01:19:14;;;;;;;2.17;1.10;;;10.40;99.90;;;;;;5051831;28;20060;-39
2023/11/15 01:21:41;;;;;;;1.98;1.15;;;10.40;99.90;;;;;;5066370;28;20049;-42
2023/11/15 01:24:08;;;;;;;3.53;1.20;;;10.40;99.90;;;;;;5067157;28;20523;-39
2023/11/15 01:26:35;;;;;;;2.42;1.30;;;10.40;99.90;;;;;;5046076;28;20052;-41
2023/11/15 01:29:03;;;;;;;2.47;1.27;;;10.40;99.90;;;;;;5078553;28;20577;-40
2023/11/15 01:31:30;;;;;;;2.50;1.35;;;10.40;99.90;;;;;;5068164;28;20060;-42
2023/11/15 01:33:57;;;;;;;2.00;1.17;;;10.40;99.90;;;;;;5049241;28;20094;-39
2023/11/15 01:36:24;;;;;;;2.53;1.38;;;10.40;99.90;;;;;;5065375;28;20052;-38
2023/11/15 01:38:50;;;;;;;2.80;1.17;;;10.30;99.90;;;;;;5055071;28;20409;-40
2023/11/15 01:41:18;;;;;;;3.42;1.08;;;10.30;99.90;;;;;;5070608;28;20055;-43
2023/11/15 01:43:45;;;;;;;1.83;0.98;;;10.30;99.90;;;;;;5077068;28;20049;-43
2023/11/15 01:46:15;;;;;;;5.15;1.42;;;10.20;99.90;;;;;;5057087;28;20052;-38
2023/11/15 01:48:42;;;;;;;3.08;1.40;;;10.20;99.90;;;;;;5066653;28;20082;-39
2023/11/15 01:51:10;;;;;;;2.17;1.10;;;10.20;99.90;;;;;;5068054;28;20568;-39
2023/11/15 01:53:40;;;;;;;3.03;1.45;;;10.10;99.90;;;;;;5060987;28;20056;-40
2023/11/15 01:56:08;;;;;;;4.15;1.63;;;10.20;99.90;;;;;;5061634;28;20044;-40
2023/11/15 01:58:35;;;;;;;2.72;1.10;;;10.20;99.90;;;;;;5053442;28;20049;-39
2023/11/15 02:01:05;;;;;;;2.55;1.25;;;10.20;99.90;;;;;;5053113;28;20048;-40
2023/11/15 02:03:32;;;;;;;3.15;1.88;;;10.20;99.90;;;;;;5071756;28;20045;-39
2023/11/15 02:05:59;;;;;;;2.30;1.20;;;10.30;99.90;;;;;;5071425;28;20263;-41
2023/11/15 02:08:27;;;;;;;5.18;1.30;;;10.30;99.90;;;;;;5053284;28;20557;-41
2023/11/15 02:10:54;;;;;;;2.42;1.17;;;10.30;99.90;;;;;;5071488;28;20121;-41
2023/11/15 02:13:26;;;;;;;4.38;1.10;;;10.30;99.90;;;;;;5068407;28;20447;-42
2023/11/15 02:15:55;;;;;;;3.42;1.38;;;10.40;99.90;;;;;;5068705;28;20059;-39
2023/11/15 02:18:23;;;;;;;2.78;1.30;;;10.30;99.90;;;;;;5046763;28;20055;-40
2023/11/15 02:20:51;;;;;;;3.28;1.33;;;10.30;99.90;;;;;;5046462;28;20052;-41
2023/11/15 02:23:22;;;;;;;3.00;1.30;;;10.30;99.90;;;;;;5070555;28;20102;-38
2023/11/15 02:25:52;;;;;;;3.47;1.60;;;10.20;99.90;;;;;;5063610;28;20068;-40
2023/11/15 02:28:20;;;;;;;3.47;1.40;;;10.30;99.90;;;;;;5069842;28;20125;-41
2023/11/15 02:30:47;;;;;;;2.35;1.35;;;10.30;99.90;;;;;;5069924;28;20119;-38
2023/11/15 02:33:14;;;;;;;6.07;1.40;;;10.40;99.90;;;;;;5068157;28;20094;-38
2023/11/15 02:35:41;;;;;;;3.58;1.30;;;10.40;99.90;;;;;;5043125;28;20100;-39
2023/11/15 02:38:08;;;;;;;5.78;1.10;;;10.40;99.90;;;;;;5071196;28;20485;-41
2023/11/15 02:40:36;;;;;;;3.00;1.42;;;10.40;99.90;;;;;;5065318;28;20090;-43
2023/11/15 02:43:10;;;;;;;3.80;1.27;;;10.40;99.90;;;;;;5058675;28;20052;-42
2023/11/15 02:45:37;;;;;;;2.40;1.58;;;10.40;99.90;;;;;;5064406;28;20048;-42
2023/11/15 02:48:04;;;;;;;5.57;1.45;;;10.40;99.90;;;;;;5065300;28;20074;-39
2023/11/15 02:50:31;;;;;;;4.50;1.30;;;10.40;99.90;;;;;;5046384;28;20121;-38
2023/11/15 02:52:59;;;;;;;4.47;1.60;;;10.50;99.90;;;;;;5063924;28;20040;-42
2023/11/15 02:55:26;;;;;;;6.05;1.45;;;10.50;99.90;;;;;;5069022;28;20064;-37
2023/11/15 02:57:53;;;;;;;3.75;1.40;;;10.50;99.90;;;;;;5045651;28;20064;-42
2023/11/15 03:00:20;;;;;;;5.50;1.52;;;10.50;99.90;;;;;;5064294;28;20048;-42
2023/11/15 03:02:49;;;;;;;3.15;1.20;;;10.50;99.90;;;;;;5060981;28;20063;-41
2023/11/15 03:05:17;;;;;;;4.40;1.25;;;10.50;99.90;;;;;;5068039;28;20180;-39
2023/11/15 03:07:44;;;;;;;3.97;1.27;;;10.50;99.90;;;;;;5062219;28;20084;-40
2023/11/15 03:10:11;;;;;;;2.83;1.38;;;10.50;99.90;;;;;;5071361;28;20052;-41
2023/11/15 03:12:38;;;;;;;2.08;1.25;;;10.50;99.90;;;;;;5072112;28;20473;-42
2023/11/15 03:15:05;;;;;;;4.78;1.30;;;10.40;99.90;;;;;;5070958;28;20086;-43
2023/11/15 03:17:32;;;;;;;3.15;1.40;;;10.40;99.90;;;;;;5068669;28;20173;-42
2023/11/15 03:19:59;;;;;;;4.80;1.95;;;10.40;99.90;;;;;;5076560;28;20105;-40
2023/11/15 03:22:26;;;;;;;3.75;1.30;;;10.40;99.90;;;;;;5077615;28;20052;-41
2023/11/15 03:24:53;;;;;;;3.15;1.30;;;10.40;99.90;;;;;;5074717;28;20094;-43
2023/11/15 03:27:21;;;;;;;2.20;1.20;;;10.40;99.90;;;;;;5074862;28;20133;-39
2023/11/15 03:29:48;;;;;;;3.30;1.20;;;10.30;99.90;;;;;;5073099;28;20124;-41
2023/11/15 03:32:15;;;;;;;5.35;1.42;;;10.30;99.90;;;;;;5067278;28;20540;-38
2023/11/15 03:34:43;;;;;;;4.03;1.55;;;10.30;99.90;;;;;;5072165;28;20527;-36
2023/11/15 03:37:10;;;;;;;6.25;1.90;;;10.20;99.90;;;;;;5050540;28;20045;-38
2023/11/15 03:39:37;;;;;;;2.50;1.23;;;10.20;99.90;;;;;;5055219;28;20200;-38
2023/11/15 03:42:05;;;;;;;3.78;1.30;;;10.20;99.90;;;;;;5067774;28;20075;-40
2023/11/15 03:44:32;;;;;;;3.42;1.38;;;10.10;99.90;;;;;;5062465;28;20102;-40
2023/11/15 03:46:59;;;;;;;3.35;1.40;;;10.10;99.90;;;;;;5070843;28;20158;-37
2023/11/15 03:49:27;;;;;;;4.55;1.50;;;10.10;99.90;;;;;;5055088;28;20468;-38
2023/11/15 03:51:54;;;;;;;3.67;1.25;;;10.00;99.90;;;;;;5073692;28;20044;-40
2023/11/15 03:54:21;;;;;;;4.88;1.30;;;10.00;99.90;;;;;;5073743;28;20048;-39
2023/11/15 03:56:48;;;;;;;3.15;1.45;;;9.90;99.90;;;;;;5074403;28;20314;-39
2023/11/15 03:59:15;;;;;;;3.30;1.33;;;9.90;99.90;;;;;;5059138;28;20059;-40
2023/11/15 04:01:42;;;;;;;4.35;1.30;;;9.90;99.90;;;;;;5085091;28;20044;-38
2023/11/15 04:04:12;;;;;;;4.28;1.30;;;9.80;99.90;;;;;;5078883;28;20036;-40
2023/11/15 04:06:39;;;;;;;4.72;1.50;;;9.80;99.90;;;;;;5080543;28;20044;-39
2023/11/15 04:09:07;;;;;;;4.60;1.58;;;9.80;99.90;;;;;;5076460;28;20046;-39
2023/11/15 04:11:36;;;;;;;7.40;1.63;;;9.90;99.90;;;;;;5071270;28;20098;-42
2023/11/15 04:14:04;;;;;;;5.57;1.52;;;9.90;99.90;;;;;;5057053;28;20037;-37
2023/11/15 04:16:31;;;;;;;3.20;1.25;;;9.90;99.90;;;;;;5072321;28;20040;-40
2023/11/15 04:18:58;;;;;;;4.68;1.40;;;9.90;99.90;;;;;;5072097;28;20053;-39
2023/11/15 04:21:26;;;;;;;4.30;1.40;;;9.90;99.90;;;;;;5070764;28;20045;-38
2023/11/15 04:23:54;;;;;;;4.43;1.38;;;9.80;99.90;;;;;;5054734;28;20055;-42
2023/11/15 04:26:22;;;;;;;2.67;1.38;;;9.70;99.90;;;;;;5070810;28;20509;-41
2023/11/15 04:28:49;;;;;;;5.63;1.42;;;9.70;99.90;;;;;;5052532;28;20606;-42
2023/11/15 04:31:16;;;;;;;5.32;1.55;;;9.70;99.90;;;;;;5072468;28;20468;-41
2023/11/15 04:33:43;;;;;;;3.40;1.63;;;9.50;99.90;;;;;;5073001;28;20143;-42
2023/11/15 04:36:10;;;;;;;4.72;1.77;;;9.60;99.90;;;;;;5065913;28;20417;-39
2023/11/15 04:38:38;;;;;;;3.78;1.60;;;9.50;99.90;;;;;;5074839;28;20043;-38
2023/11/15 04:41:06;;;;;;;4.53;1.70;;;9.40;99.90;;;;;;5070572;28;20048;-40
2023/11/15 04:43:33;;;;;;;5.13;1.70;;;9.40;99.90;;;;;;5048473;28;20083;-39
2023/11/15 04:46:00;;;;;;;4.32;1.60;;;9.40;99.90;;;;;;5072047;28;20461;-41
2023/11/15 04:48:27;;;;;;;5.25;1.75;;;9.50;99.90;;;;;;5074542;28;20076;-42
2023/11/15 04:50:57;;;;;;;8.05;1.92;;;9.50;99.90;;;;;;5070092;28;20056;-40
2023/11/15 04:53:24;;;;;;;7.43;1.80;;;9.50;99.90;;;;;;5070929;28;20045;-41
2023/11/15 04:55:51;;;;;;;5.65;2.20;;;9.60;99.90;;;;;;5070456;28;20048;-40
2023/11/15 04:58:18;;;;;;;4.72;1.75;;;9.60;99.90;;;;;;5071363;28;20048;-41
2023/11/15 05:00:45;;;;;;;5.10;1.83;;;9.70;99.90;;;;;;5073742;28;20084;-41
2023/11/15 05:03:12;;;;;;;5.30;1.77;;;9.70;99.90;;;;;;5073575;28;20130;-40
2023/11/15 05:05:42;;;;;;;9.80;2.58;;;9.60;99.90;;;;;;5069355;28;20049;-38
2023/11/15 05:08:09;;;;;;;10.25;1.85;;;9.60;99.90;;;;;;5073227;28;20055;-39
2023/11/15 05:10:37;;;;;;;5.20;1.70;;;9.60;99.90;;;;;;5078259;28;20044;-40
2023/11/15 05:13:04;;;;;;;4.65;1.98;;;9.60;99.90;;;;;;5071934;28;20059;-41
2023/11/15 05:15:32;;;;;;;5.90;1.52;;;9.70;99.90;;;;;;5067761;28;20060;-42
2023/11/15 05:17:59;;;;;;;6.22;1.63;;;9.70;99.90;;;;;;5070808;28;20045;-38
2023/11/15 05:20:27;;;;;;;6.88;1.60;;;9.70;99.90;;;;;;5070334;28;20048;-38
2023/11/15 05:22:57;;;;;;;5.95;2.30;;;9.70;99.90;;;;;;5070184;28;20040;-38
2023/11/15 05:25:24;;;;;;;4.30;1.80;;;9.70;99.90;;;;;;5071610;28;20122;-41
2023/11/15 05:27:53;;;;;;;6.30;1.80;;;9.70;99.90;;;;;;5071997;28;20049;-39
2023/11/15 05:30:20;;;;;;;5.82;2.25;;;9.60;99.90;;;;;;5053830;28;20028;-37
2023/11/15 05:32:47;;;;;;;5.20;1.80;;;9.60;99.90;;;;;;5070957;28;20200;-39
2023/11/15 05:35:14;;;;;;;5.72;1.63;;;9.50;99.90;;;;;;5068811;28;20046;-41
2023/11/15 05:37:41;;;;;;;4.07;1.50;;;9.50;99.90;;;;;;5068418;28;20045;-40
2023/11/15 05:40:08;;;;;;;3.17;1.50;;;9.40;99.90;;;;;;5067820;28;20048;-39
2023/11/15 05:42:35;;;;;;;6.10;2.22;;;9.40;99.90;;;;;;5068104;28;20521;-36
2023/11/15 05:45:02;;;;;;;8.70;1.63;;;9.30;99.90;;;;;;5070834;28;20624;-39
2023/11/15 05:47:30;;;;;;;4.38;1.80;;;9.20;99.90;;;;;;5071210;28;20064;-40
2023/11/15 05:49:57;;;;;;;4.28;1.67;;;9.20;99.90;;;;;;5071059;28;20039;-39
2023/11/15 05:52:24;;;;;;;6.85;1.55;;;9.20;99.90;;;;;;5066852;28;20040;-42
2023/11/15 05:54:51;;;;;;;7.78;2.20;;;9.10;99.90;;;;;;5071621;28;20566;-42
2023/11/15 05:57:20;;;;;;;9.30;2.10;;;9.10;99.90;;;;;;5069925;28;20041;-41
2023/11/15 05:59:47;;;;;;;3.95;1.63;;;9.10;99.90;;;;;;5079283;28;20501;-42
2023/11/15 06:02:14;;;;;;;6.18;1.88;;;9.00;99.90;;;;;;5072063;28;20063;-44
2023/11/15 06:04:42;;;;;;;4.85;2.08;;;9.10;99.90;;;;;;5076245;28;20140;-43
2023/11/15 06:07:09;;;;;;;4.93;1.88;;;9.10;99.90;;;;;;5055277;28;20064;-40
2023/11/15 06:09:36;;;;;;;5.53;1.90;;;9.00;99.90;;;;;;5071658;28;20048;-37
2023/11/15 06:12:04;;;;;;;6.30;1.77;;;9.10;99.90;;;;;;5064985;28;20093;-39
2023/11/15 06:14:31;;;;;;;7.07;2.08;;;9.10;99.90;;;;;;5067440;28;20486;-39
2023/11/15 06:16:59;;;;;;;4.32;1.63;;;9.00;99.90;;;;;;5071054;28;20037;-40
2023/11/15 06:19:26;;;;;;;3.20;1.65;;;9.10;99.90;;;;;;5070397;28;20048;-38
2023/11/15 06:21:53;;;;;;;5.40;1.67;;;9.00;99.90;;;;;;5066279;28;20056;-42
2023/11/15 06:24:20;;;;;;;5.72;1.70;;;9.10;99.90;;;;;;5066611;28;20507;-39
2023/11/15 06:26:50;;;;;;;4.07;1.48;;;9.00;99.90;;;;;;5067863;28;20412;-38
2023/11/15 06:29:24;;;;;;;4.25;1.55;;;9.00;99.90;;;;;;5069273;28;20062;-39
2023/11/15 06:31:53;;;;;;;5.97;1.73;;;9.10;99.90;;;;;;5069843;28;20055;-40
2023/11/15 06:34:20;;;;;;;4.15;1.50;;;9.10;99.90;;;;;;5063063;28;20562;-42
2023/11/15 06:36:47;;;;;;;5.88;1.70;;;9.20;99.90;;;;;;5056306;28;20041;-42
2023/11/15 06:39:14;;;;;;;4.05;1.58;;;9.10;99.90;;;;;;5065096;28;20489;-39
2023/11/15 06:41:41;;;;;;;2.65;1.40;;;9.20;99.90;;;;;;5071593;28;20040;-40
2023/11/15 06:44:09;;;;;;;4.93;1.60;;;9.10;99.90;;;;;;5069440;28;20044;-39
2023/11/15 06:46:38;;;;;;;5.88;1.40;;;9.10;99.90;;;;;;5065116;28;20052;-41
2023/11/15 06:49:06;;;;;;;3.97;1.40;;;9.10;99.90;;;;;;5065712;28;20546;-38
2023/11/15 06:51:33;;;;;;;9.27;2.08;;;9.10;99.90;;;;;;5072629;28;20397;-43
2023/11/15 06:54:01;;;;;;;3.53;1.40;;;9.10;99.90;;;;;;5079199;28;20076;-41
2023/11/15 06:56:28;;;;;;;5.75;1.40;;;9.10;99.90;;;;;;5073316;28;20075;-42
2023/11/15 06:58:56;;;;;;;5.93;1.48;;;9.00;99.90;;;;;;5072505;28;20127;-38
2023/11/15 07:01:23;;;;;;;7.97;1.73;;;9.10;99.90;;;;;;5058182;28;20053;-43
2023/11/15 07:03:52;;;;;;;2.92;1.38;;;9.00;99.90;;;;;;5076161;28;20063;-43
2023/11/15 07:06:20;;;;;;;3.42;1.50;;;9.10;99.90;;;;;;5079951;28;20064;-41
2023/11/15 07:08:47;;;;;;;3.30;1.65;;;9.20;99.90;;;;;;5073203;28;20043;-42
2023/11/15 07:11:15;;;;;;;3.63;1.50;;;9.20;99.90;;;;;;5076895;28;20052;-41
2023/11/15 07:13:41;;;;;;;6.57;1.58;;;9.20;99.90;;;;;;5076214;28;20044;-42
2023/11/15 07:16:11;;;;;;;8.23;1.63;;;9.20;99.90;;;;;;5073370;28;20086;-39
2023/11/15 07:18:38;;;;;;;2.72;1.58;;;9.20;99.90;;;;;;5062781;28;20044;-40
2023/11/15 07:21:07;;;;;;;8.07;3.50;;;9.20;99.90;;;;;;5069591;28;20048;-40
2023/11/15 07:23:34;;;;;;;5.72;1.83;;;9.20;99.90;;;;;;5071956;28;20044;-40
2023/11/15 07:26:01;;;;;;;4.57;1.90;;;9.20;99.90;;;;;;5071696;28;20492;-41
2023/11/15 07:28:30;;;;;;;6.50;1.85;;;9.20;99.90;;;;;;5071560;28;20040;-41
2023/11/15 07:30:58;;;;;;;4.55;1.65;;;9.30;99.90;;;;;;5071736;28;20037;-41
2023/11/15 07:33:26;;;;;;;9.07;2.00;;;9.30;99.90;;;;;;5071262;28;20413;-41
2023/11/15 07:35:54;;;;;;;4.68;2.10;;;9.30;99.90;;;;;;5075320;28;20151;-40
2023/11/15 07:38:23;;;;;;;6.10;2.10;;;9.40;99.90;;;;;;5067388;28;20048;-41
2023/11/15 07:40:51;;;;;;;5.10;2.00;;;9.50;99.90;;;;;;5063800;28;20159;-39
2023/11/15 07:43:18;;;;;;;7.75;2.90;;;9.50;99.90;;;;;;5061055;28;20053;-42
2023/11/15 07:45:51;;;;;;;5.10;1.92;;;9.50;99.90;;;;;;5067874;28;20554;-44
2023/11/15 07:48:19;;;;;;;5.88;2.28;;;9.60;99.90;;;;;;5062203;28;20047;-40
2023/11/15 07:50:46;;;;;;;5.40;2.42;;;9.60;99.90;;;;;;5063273;28;20139;-42
2023/11/15 07:53:13;;;;;;;10.23;2.22;;;9.70;99.90;;;;;;5067475;28;20060;-41
2023/11/15 07:55:42;;;;;;;9.32;2.28;;;9.70;99.90;;;;;;5067392;28;20049;-40
2023/11/15 07:58:11;;;;;;;10.43;1.95;;;9.70;99.90;;;;;;5069933;28;20116;-39
2023/11/15 08:00:38;;;;;;;5.78;2.08;;;9.70;99.90;;;;;;5069801;28;20037;-39
2023/11/15 08:03:05;;;;;;;6.47;2.08;;;9.80;99.90;;;;;;5063967;28;20040;-42
2023/11/15 08:05:33;;;;;;;6.43;2.10;;;9.80;99.90;;;;;;5061177;28;20474;-38
2023/11/15 08:08:00;;;;;;;5.70;2.08;;;9.80;99.90;;;;;;5069168;28;20380;-43
2023/11/15 08:10:27;;;;;;;8.00;2.53;;;9.80;99.90;;;;;;5057023;28;20098;-40
2023/11/15 08:12:55;;;;;;;7.97;2.30;;;9.90;99.90;;;;;;5075540;28;20093;-42
2023/11/15 08:15:22;;;;;;;10.95;2.35;;;10.00;99.90;;;;;;5077117;28;20048;-42
2023/11/15 08:17:49;;;;;;;8.02;2.15;;;10.10;99.90;;;;;;5076460;28;20094;-38
2023/11/15 08:20:18;;;;;;;5.78;1.90;;;10.20;99.90;;;;;;5072134;28;20048;-41
2023/11/15 08:22:45;;;;;;;9.35;2.38;;;10.20;99.90;;;;;;5063225;28;20063;-42
2023/11/15 08:25:16;;;;;;;9.80;2.40;;;10.20;99.90;;;;;;5071693;28;20570;-42
2023/11/15 08:27:43;;;;;;;6.47;2.20;;;10.30;99.90;;;;;;5052255;28;20056;-41
2023/11/15 08:30:14;;;;;;;9.48;2.28;;;10.40;99.90;;;;;;5071644;28;20049;-39
2023/11/15 08:32:42;;;;;;;11.27;2.15;;;10.40;99.90;;;;;;5071241;28;20067;-39
2023/11/15 08:35:10;;;;;;;8.35;2.20;;;10.40;99.90;;;;;;5059533;28;20331;-40
2023/11/15 08:37:38;;;;;;;7.95;1.98;;;10.50;99.90;;;;;;5054425;28;20536;-42
2023/11/15 08:40:06;;;;;;;11.05;2.53;;;10.60;99.90;;;;;;5051891;28;20098;-44
2023/11/15 08:42:52;;;;;;;6.43;1.95;;;10.60;99.90;;;;;;5064800;28;20232;-39
2023/11/15 08:45:19;;;;;;;6.10;2.40;;;10.60;99.90;;;;;;5065798;28;20081;-42
2023/11/15 08:47:47;;;;;;;7.18;2.00;;;10.70;99.90;;;;;;5069149;28;20048;-38
2023/11/15 08:50:14;;;;;;;8.70;2.00;;;10.70;99.90;;;;;;5063043;28;20063;-41
2023/11/15 08:52:42;;;;;;;8.75;2.10;;;10.70;99.90;;;;;;5065361;28;20037;-38
2023/11/15 08:55:11;;;;;;;7.53;2.00;;;10.70;99.90;;;;;;5072047;28;20047;-40
2023/11/15 08:57:38;;;;;;;6.05;2.08;;;10.80;99.90;;;;;;5065660;28;20037;-40
2023/11/15 09:00:12;;;;;;;5.88;2.22;;;10.90;99.90;;;;;;5069066;28;20041;-44
2023/11/15 09:02:46;;;;;;;7.43;2.10;;;11.00;99.90;;;;;;5070090;28;20040;-43
2023/11/15 09:05:14;;;;;;;7.72;2.10;;;11.10;99.90;;;;;;5070482;28;20086;-41
2023/11/15 09:07:41;;;;;;;9.43;2.10;;;11.00;99.90;;;;;;5066613;28;20041;-43
2023/11/15 09:10:08;;;;;;;6.13;2.05;;;11.00;99.90;;;;;;5072937;28;20049;-40
2023/11/15 09:12:37;;;;;;;6.63;2.10;;;11.00;99.90;;;;;;5063835;28;20045;-41
2023/11/15 09:15:11;;;;;;;5.65;2.15;;;11.00;99.90;;;;;;5062553;28;20075;-38
2023/11/15 09:17:50;;;;;;;5.00;2.00;;;11.10;99.90;;;;;;5064187;28;20142;-38
2023/11/15 09:20:21;;;;;;;6.60;2.25;;;11.20;99.90;;;;;;5067195;28;20127;-42
2023/11/15 09:22:48;;;;;;;4.72;1.90;;;11.20;99.90;;;;;;5069478;28;20033;-39
2023/11/15 09:25:26;;;;;;;8.10;2.40;;;11.30;99.90;;;;;;5064407;28;20098;-41
2023/11/15 09:27:56;;;;;;;5.75;2.22;;;11.30;99.90;;;;;;5069193;28;20044;-41
2023/11/15 09:30:27;;;;;;;7.72;2.33;;;11.40;99.90;;;;;;5068704;28;20067;-42
2023/11/15 09:32:54;;;;;;;6.05;2.08;;;11.50;99.90;;;;;;5071473;28;20572;-43
2023/11/15 09:35:29;;;;;;;4.75;2.15;;;11.80;99.90;;;;;;5067144;28;20148;-40
2023/11/15 09:37:59;;;;;;;7.80;2.40;;;11.80;99.90;;;;;;5071973;28;20075;-42
2023/11/15 09:40:27;;;;;;;6.75;2.10;;;11.80;99.90;;;;;;5070506;28;20041;-40
2023/11/15 09:42:58;;;;;;;6.20;2.17;;;11.70;99.90;;;;;;5065602;28;20033;-40
2023/11/15 09:45:26;;;;;;;5.80;2.10;;;11.80;99.90;;;;;;5071545;28;20050;-38
2023/11/15 09:47:54;;;;;;;7.10;2.33;;;11.90;99.90;;;;;;5070061;28;20070;-40
2023/11/15 09:50:23;;;;;;;7.88;2.20;;;11.80;99.90;;;;;;5078762;28;20037;-43
2023/11/15 09:52:55;;;;;;;5.22;2.20;;;11.90;99.90;;;;;;5079047;28;20040;-40
2023/11/15 09:55:26;;;;;;;7.32;2.58;;;12.00;99.90;;;;;;5083433;28;20041;-42
2023/11/15 09:57:53;;;;;;;8.07;2.63;;;12.00;99.90;;;;;;5077949;28;20040;-42
2023/11/15 10:00:22;;;;;;;6.63;2.13;;;12.20;99.90;;;;;;5069315;28;20091;-41
2023/11/15 10:02:52;;;;;;;4.88;1.92;;;12.10;99.90;;;;;;5067846;28;20097;-38
2023/11/15 10:05:23;;;;;;;6.28;1.90;;;12.00;99.90;;;;;;5069573;28;20060;-39
2023/11/15 10:07:52;;;;;;;6.65;2.28;;;12.10;99.90;;;;;;5071355;28;20159;-41
2023/11/15 10:10:21;;;;;;;4.25;2.15;;;12.00;99.90;;;;;;5068224;28;20489;-41
2023/11/15 10:12:50;;;;;;;3.75;2.00;;;12.00;99.90;;;;;;5070791;28;20548;-39
2023/11/15 10:15:29;;;;;;;5.32;2.15;;;11.90;99.90;;;;;;5069614;28;20051;-42
2023/11/15 10:17:56;;;;;;;5.43;2.20;;;12.00;99.90;;;;;;5069620;28;20037;-41
2023/11/15 10:20:25;;;;;;;7.57;2.25;;;12.10;99.90;;;;;;5067616;28;20182;-42
2023/11/15 10:22:53;;;;;;;9.57;2.78;;;12.10;99.90;;;;;;5065445;28;20048;-41
2023/11/15 10:25:20;;;;;;;4.18;2.28;;;12.10;99.90;;;;;;5070016;28;20101;-38
2023/11/15 10:27:50;;;;;;;6.10;2.50;;;12.20;99.90;;;;;;5069477;28;20560;-39
2023/11/15 10:30:20;;;;;;;5.47;2.15;;;12.10;99.90;;;;;;5068072;28;20040;-39
2023/11/15 10:32:47;;;;;;;4.30;2.45;;;12.10;99.90;;;;;;5069499;28;20051;-43
2023/11/15 10:35:27;;;;;;;4.82;2.20;;;11.90;99.90;;;;;;5068006;28;20043;-39
2023/11/15 10:37:54;;;;;;;6.22;2.28;;;12.00;99.90;;;;;;5068826;28;20094;-40
2023/11/15 10:40:25;;;;;;;6.32;2.40;;;12.10;99.90;;;;;;5059472;28;20060;-41
2023/11/15 10:42:54;;;;;;;4.33;2.20;;;12.10;99.90;;;;;;5067995;28;20409;-39
2023/11/15 10:45:23;;;;;;;6.07;2.22;;;11.90;99.90;;;;;;5068420;28;20104;-39
2023/11/15 10:47:56;;;;;;;4.60;2.00;;;12.00;99.90;;;;;;5066943;28;20600;-40
2023/11/15 10:50:30;;;;;;;6.88;2.40;;;12.10;99.90;;;;;;5069255;28;20075;-39
2023/11/15 10:52:59;;;;;;;6.20;2.70;;;12.10;99.90;;;;;;5070418;28;20095;-43
2023/11/15 10:55:28;;;;;;;8.10;2.38;;;12.10;99.90;;;;;;5068910;28;20037;-42
2023/11/15 10:58:02;;;;;;;10.35;2.50;;;12.00;99.90;;;;;;5075507;28;20101;-42
2023/11/15 11:00:30;;;;;;;6.28;2.55;;;12.00;99.90;;;;;;5074877;28;20052;-41
2023/11/15 11:02:57;;;;;;;4.53;2.08;;;12.10;99.90;;;;;;5076740;28;20060;-40
2023/11/15 11:05:29;;;;;;;5.57;2.30;;;12.10;99.90;;;;;;5074724;28;20040;-42
2023/11/15 11:08:05;;;;;;;6.03;2.42;;;12.20;99.90;;;;;;5064163;28;20429;-42
2023/11/15 11:10:42;;;;;;;6.70;2.65;;;12.20;99.90;;;;;;5070182;28;20044;-40
2023/11/15 11:13:21;;;;;;;4.93;2.30;;;12.20;99.90;;;;;;5068047;28;20044;-40
2023/11/15 11:15:49;;;;;;;7.07;2.60;;;12.50;99.90;;;;;;5049960;28;20128;-40
2023/11/15 11:18:21;;;;;;;5.20;2.30;;;12.70;99.90;;;;;;5070822;28;20037;-41
2023/11/15 11:21:00;;;;;;;5.75;2.40;;;13.10;99.90;;;;;;5069440;28;20036;-38
2023/11/15 11:23:30;;;;;;;4.90;2.35;;;13.10;99.90;;;;;;5070265;28;20192;-42
2023/11/15 11:26:33;;;;;;;4.72;2.33;;;13.10;99.90;;;;;;5066263;28;20067;-43
2023/11/15 11:29:04;;;;;;;6.47;2.55;;;13.10;99.90;;;;;;5067499;28;20032;-42
2023/11/15 11:31:31;;;;;;;7.73;2.50;;;13.30;99.90;;;;;;5069664;28;20101;-44
2023/11/15 11:34:09;;;;;;;6.03;2.33;;;12.90;99.90;;;;;;5071687;28;20350;-43
2023/11/15 11:36:53;;;;;;;8.68;2.40;;;12.60;99.90;;;;;;5069976;28;20163;-42
2023/11/15 11:39:23;;;;;;;4.78;2.30;;;12.60;99.90;;;;;;5065156;28;20453;-41
2023/11/15 11:41:51;;;;;;;5.77;2.37;;;12.80;99.90;;;;;;5070837;28;20044;-42
2023/11/15 11:44:18;;;;;;;3.40;2.22;;;13.00;99.90;;;;;;5037362;28;20397;-41
2023/11/15 11:47:01;;;;;;;5.20;2.30;;;13.10;99.90;;;;;;5073783;28;20052;-44
2023/11/15 11:49:45;;;;;;;4.32;2.30;;;13.00;99.90;;;;;;5070218;28;20048;-42
2023/11/15 11:52:17;;;;;;;5.55;2.47;;;12.60;99.90;;;;;;5069306;28;20048;-39
2023/11/15 11:54:52;;;;;;;6.28;2.40;;;12.50;99.90;;;;;;5072325;28;20048;-44
2023/11/15 11:57:26;;;;;;;4.97;2.40;;;12.40;99.90;;;;;;5072398;28;20587;-39
2023/11/15 12:00:13;;;;;;;7.20;2.90;;;13.20;99.90;;;;;;5069671;28;20135;-40
2023/11/15 12:02:47;;;;;;;11.27;2.55;;;13.80;99.90;;;;;;5072832;28;20075;-43
2023/11/15 12:05:23;;;;;;;4.53;2.33;;;14.10;99.90;;;;;;5071259;28;20038;-39
2023/11/15 12:07:51;;;;;;;3.88;2.35;;;14.50;99.90;;;;;;5072190;28;20055;-40
2023/11/15 12:10:18;;;;;;;5.47;2.42;;;14.50;99.90;;;;;;5080982;28;20044;-40
2023/11/15 12:13:02;;;;;;;6.72;2.83;;;14.80;99.90;;;;;;5081897;28;20100;-45
2023/11/15 12:15:29;;;;;;;6.25;2.70;;;15.10;99.90;;;;;;5079029;28;20045;-45
2023/11/15 12:17:58;;;;;;;5.78;2.80;;;15.40;99.90;;;;;;5078080;28;20406;-41
2023/11/15 12:20:26;;;;;;;5.35;2.92;;;14.90;99.90;;;;;;5072375;28;20037;-41
2023/11/15 12:23:09;;;;;;;4.82;2.65;;;15.10;99.90;;;;;;5072151;28;20160;-39
2023/11/15 12:25:52;;;;;;;6.28;2.80;;;14.90;99.90;;;;;;5054680;28;20052;-39
2023/11/15 12:28:25;;;;;;;4.20;2.75;;;15.10;99.90;;;;;;5071105;28;20050;-40
2023/11/15 12:30:55;;;;;;;9.07;3.05;;;15.30;99.90;;;;;;5071653;28;20128;-41
2023/11/15 12:33:23;;;;;;;4.82;2.90;;;14.70;99.90;;;;;;5071017;28;20040;-42
2023/11/15 12:35:52;;;;;;;8.95;3.50;;;13.90;99.90;;;;;;5070544;28;20044;-43
2023/11/15 12:38:20;;;;;;;7.72;3.05;;;13.40;99.90;;;;;;5072933;28;20037;-40
2023/11/15 12:40:48;;;;;;;5.00;2.78;;;13.00;99.90;;;;;;5069704;28;20037;-40
2023/11/15 12:43:30;;;;;;;6.90;2.72;;;12.60;99.90;;;;;;5071063;28;20521;-42
2023/11/15 12:46:14;;;;;;;8.82;3.35;;;12.10;99.90;;;;;;5073286;28;20391;-38
2023/11/15 12:48:42;;;;;;;4.88;2.63;;;11.90;99.90;;;;;;5064393;28;20060;-43
2023/11/15 12:51:09;;;;;;;3.00;2.20;;;11.60;99.90;;;;;;5069307;28;20090;-40
2023/11/15 12:53:36;;;;;;;3.17;2.20;;;11.40;99.90;;;;;;5068343;28;20075;-40
2023/11/15 12:56:04;;;;;;;4.22;2.30;;;11.30;99.90;;;;;;5069667;28;20088;-42
2023/11/15 12:58:31;;;;;;;5.90;2.17;;;11.20;99.90;;;;;;5070442;28;20037;-39
2023/11/15 13:01:02;;;;;;;4.75;2.22;;;11.20;99.90;;;;;;5066910;28;20561;-43
2023/11/15 13:03:33;;;;;;;6.97;1.95;;;11.10;99.90;;;;;;5069659;28;20032;-40
2023/11/15 13:06:23;;;;;;;6.57;2.22;;;11.10;99.90;;;;;;5067914;28;20122;-41
2023/11/15 13:08:59;;;;;;;6.00;2.13;;;11.30;99.90;;;;;;5074140;28;20074;-41
2023/11/15 13:11:26;;;;;;;8.00;2.65;;;11.20;99.90;;;;;;5072919;28;20048;-41
2023/11/15 13:13:53;;;;;;;6.95;2.28;;;11.30;99.90;;;;;;5071939;28;20102;-44
2023/11/15 13:16:23;;;;;;;5.65;1.95;;;12.00;99.90;;;;;;5072349;28;20052;-40
2023/11/15 13:18:51;;;;;;;5.22;2.35;;;13.00;99.90;;;;;;5074109;28;20124;-43